sensor_id;sensor_type;location;lat;lon;timestamp;P1;durP1;ratioP1;P2;durP2;ratioP2
23684;SDS011;12020;51.384;6.908;2024-01-16T00:04:28;11.57;;;7.93;;
23684;SDS011;12020;51.384;6.908;2024-01-16T00:06:56;10.83;;;8.53;;
23684;SDS011;12020;51.384;6.908;2024-01-16T00:09:23;10.73;;;7.68;;
23684;SDS011;12020;51.384;6.908;2024-01-16T00:11:53;9.95;;;7.10;;
23684;SDS011;12020;51.384;6.908;2024-01-16T00:14:21;10.93;;;7.90;;
23684;SDS011;12020;51.384;6.908;2024-01-16T00:16:47;10.50;;;8.10;;
23684;SDS011;12020;51.384;6.908;2024-01-16T00:27:32;11.90;;;8.70;;
23684;SDS011;12020;51.384;6.908;2024-01-16T00:30:23;11.98;;;9.15;;
23684;SDS011;12020;51.384;6.908;2024-01-16T00:44:06;12.40;;;9.82;;
23684;SDS011;12020;51.384;6.908;2024-01-16T00:49:55;10.23;;;9.23;;
23684;SDS011;12020;51.384;6.908;2024-01-16T00:52:22;12.68;;;9.45;;
23684;SDS011;12020;51.384;6.908;2024-01-16T01:01:32;11.17;;;9.07;;
23684;SDS011;12020;51.384;6.908;2024-01-16T01:14:08;12.98;;;9.73;;
23684;SDS011;12020;51.384;6.908;2024-01-16T01:26:30;10.82;;;8.98;;
23684;SDS011;12020;51.384;6.908;2024-01-16T01:35:40;11.87;;;9.00;;
23684;SDS011;12020;51.384;6.908;2024-01-16T01:38:07;10.52;;;8.75;;
23684;SDS011;12020;51.384;6.908;2024-01-16T01:40:55;11.13;;;8.75;;
23684;SDS011;12020;51.384;6.908;2024-01-16T01:59:31;14.25;;;11.70;;
23684;SDS011;12020;51.384;6.908;2024-01-16T02:01:59;15.77;;;12.43;;
23684;SDS011;12020;51.384;6.908;2024-01-16T02:04:33;15.20;;;11.98;;
23684;SDS011;12020;51.384;6.908;2024-01-16T02:07:06;15.50;;;13.68;;
23684;SDS011;12020;51.384;6.908;2024-01-16T02:09:32;15.88;;;13.73;;
23684;SDS011;12020;51.384;6.908;2024-01-16T02:25:33;17.63;;;13.80;;
23684;SDS011;12020;51.384;6.908;2024-01-16T02:28:00;16.90;;;14.10;;
23684;SDS011;12020;51.384;6.908;2024-01-16T02:46:28;19.13;;;16.73;;
23684;SDS011;12020;51.384;6.908;2024-01-16T02:52:17;18.42;;;16.58;;
23684;SDS011;12020;51.384;6.908;2024-01-16T03:05:47;19.63;;;17.52;;
23684;SDS011;12020;51.384;6.908;2024-01-16T03:37:38;18.63;;;16.15;;
23684;SDS011;12020;51.384;6.908;2024-01-16T03:40:05;18.08;;;16.25;;
23684;SDS011;12020;51.384;6.908;2024-01-16T03:42:32;19.00;;;16.97;;
23684;SDS011;12020;51.384;6.908;2024-01-16T03:57:39;20.40;;;18.30;;
23684;SDS011;12020;51.384;6.908;2024-01-16T04:06:29;20.20;;;17.67;;
23684;SDS011;12020;51.384;6.908;2024-01-16T04:08:58;21.98;;;18.65;;
23684;SDS011;12020;51.384;6.908;2024-01-16T04:11:36;21.17;;;18.30;;
23684;SDS011;12020;51.384;6.908;2024-01-16T04:16:37;20.25;;;18.00;;
23684;SDS011;12020;51.384;6.908;2024-01-16T04:19:04;21.07;;;17.90;;
23684;SDS011;12020;51.384;6.908;2024-01-16T04:21:29;22.25;;;17.95;;
23684;SDS011;12020;51.384;6.908;2024-01-16T04:23:58;20.63;;;17.27;;
23684;SDS011;12020;51.384;6.908;2024-01-16T04:33:35;18.17;;;14.73;;
23684;SDS011;12020;51.384;6.908;2024-01-16T04:39:24;16.02;;;13.38;;
23684;SDS011;12020;51.384;6.908;2024-01-16T04:41:53;15.35;;;13.30;;
23684;SDS011;12020;51.384;6.908;2024-01-16T04:54:26;14.10;;;12.60;;
23684;SDS011;12020;51.384;6.908;2024-01-16T05:03:58;13.15;;;11.65;;
23684;SDS011;12020;51.384;6.908;2024-01-16T05:06:37;12.77;;;10.70;;
23684;SDS011;12020;51.384;6.908;2024-01-16T05:09:10;12.30;;;10.90;;
23684;SDS011;12020;51.384;6.908;2024-01-16T05:11:38;13.45;;;11.00;;
23684;SDS011;12020;51.384;6.908;2024-01-16T05:14:25;13.07;;;11.57;;
23684;SDS011;12020;51.384;6.908;2024-01-16T05:16:53;12.77;;;10.52;;
23684;SDS011;12020;51.384;6.908;2024-01-16T05:38:57;15.15;;;12.88;;
23684;SDS011;12020;51.384;6.908;2024-01-16T05:41:25;15.35;;;12.70;;
23684;SDS011;12020;51.384;6.908;2024-01-16T05:43:55;13.63;;;12.27;;
23684;SDS011;12020;51.384;6.908;2024-01-16T06:17:13;19.48;;;16.45;;
23684;SDS011;12020;51.384;6.908;2024-01-16T07:00:09;14.02;;;8.55;;
23684;SDS011;12020;51.384;6.908;2024-01-16T07:02:36;11.40;;;7.53;;
23684;SDS011;12020;51.384;6.908;2024-01-16T07:29:18;14.90;;;7.55;;
23684;SDS011;12020;51.384;6.908;2024-01-16T08:56:25;9.67;;;4.10;;
23684;SDS011;12020;51.384;6.908;2024-01-16T09:30:30;9.13;;;3.93;;
23684;SDS011;12020;51.384;6.908;2024-01-16T09:32:56;7.75;;;4.05;;
23684;SDS011;12020;51.384;6.908;2024-01-16T09:35:24;8.82;;;4.20;;
23684;SDS011;12020;51.384;6.908;2024-01-16T09:37:50;10.00;;;4.10;;
23684;SDS011;12020;51.384;6.908;2024-01-16T09:40:17;7.53;;;3.67;;
23684;SDS011;12020;51.384;6.908;2024-01-16T10:06:48;7.87;;;4.03;;
23684;SDS011;12020;51.384;6.908;2024-01-16T10:12:24;7.43;;;4.00;;
23684;SDS011;12020;51.384;6.908;2024-01-16T10:20:55;11.98;;;4.43;;
23684;SDS011;12020;51.384;6.908;2024-01-16T10:23:26;11.32;;;4.78;;
23684;SDS011;12020;51.384;6.908;2024-01-16T10:28:35;9.40;;;4.43;;
23684;SDS011;12020;51.384;6.908;2024-01-16T10:33:54;7.93;;;3.90;;
23684;SDS011;12020;51.384;6.908;2024-01-16T10:36:23;8.00;;;4.07;;
23684;SDS011;12020;51.384;6.908;2024-01-16T10:48:09;10.75;;;4.38;;
23684;SDS011;12020;51.384;6.908;2024-01-16T10:50:41;9.98;;;4.63;;
23684;SDS011;12020;51.384;6.908;2024-01-16T10:53:09;8.77;;;4.68;;
23684;SDS011;12020;51.384;6.908;2024-01-16T10:55:56;10.50;;;4.38;;
23684;SDS011;12020;51.384;6.908;2024-01-16T10:58:24;8.18;;;3.97;;
23684;SDS011;12020;51.384;6.908;2024-01-16T11:00:57;9.07;;;4.43;;
23684;SDS011;12020;51.384;6.908;2024-01-16T11:03:34;9.75;;;4.70;;
23684;SDS011;12020;51.384;6.908;2024-01-16T11:06:04;8.48;;;4.13;;
23684;SDS011;12020;51.384;6.908;2024-01-16T11:08:31;9.75;;;4.32;;
23684;SDS011;12020;51.384;6.908;2024-01-16T11:10:59;7.40;;;4.22;;
23684;SDS011;12020;51.384;6.908;2024-01-16T11:13:36;7.93;;;4.22;;
23684;SDS011;12020;51.384;6.908;2024-01-16T11:16:11;9.75;;;4.53;;
23684;SDS011;12020;51.384;6.908;2024-01-16T11:18:37;8.43;;;4.95;;
23684;SDS011;12020;51.384;6.908;2024-01-16T11:21:08;8.23;;;4.25;;
23684;SDS011;12020;51.384;6.908;2024-01-16T11:23:37;8.88;;;4.50;;
23684;SDS011;12020;51.384;6.908;2024-01-16T11:26:25;8.52;;;4.40;;
23684;SDS011;12020;51.384;6.908;2024-01-16T11:31:56;8.20;;;4.35;;
23684;SDS011;12020;51.384;6.908;2024-01-16T11:37:29;8.35;;;4.45;;
23684;SDS011;12020;51.384;6.908;2024-01-16T11:46:45;7.72;;;4.47;;
23684;SDS011;12020;51.384;6.908;2024-01-16T11:49:25;10.10;;;4.80;;
23684;SDS011;12020;51.384;6.908;2024-01-16T11:51:54;10.10;;;4.43;;
23684;SDS011;12020;51.384;6.908;2024-01-16T11:54:21;9.65;;;4.40;;
23684;SDS011;12020;51.384;6.908;2024-01-16T12:02:46;8.13;;;4.85;;
23684;SDS011;12020;51.384;6.908;2024-01-16T12:05:17;8.17;;;4.63;;
23684;SDS011;12020;51.384;6.908;2024-01-16T12:07:47;10.13;;;4.25;;
23684;SDS011;12020;51.384;6.908;2024-01-16T12:10:32;7.43;;;4.13;;
23684;SDS011;12020;51.384;6.908;2024-01-16T12:13:11;7.85;;;3.67;;
23684;SDS011;12020;51.384;6.908;2024-01-16T12:22:08;7.13;;;4.13;;
23684;SDS011;12020;51.384;6.908;2024-01-16T12:24:58;8.02;;;4.30;;
23684;SDS011;12020;51.384;6.908;2024-01-16T12:33:48;8.18;;;4.30;;
23684;SDS011;12020;51.384;6.908;2024-01-16T12:36:16;8.02;;;4.30;;
23684;SDS011;12020;51.384;6.908;2024-01-16T12:38:55;7.82;;;4.13;;
23684;SDS011;12020;51.384;6.908;2024-01-16T12:41:24;7.50;;;4.40;;
23684;SDS011;12020;51.384;6.908;2024-01-16T12:52:27;7.82;;;4.45;;
23684;SDS011;12020;51.384;6.908;2024-01-16T12:58:23;11.05;;;4.60;;
23684;SDS011;12020;51.384;6.908;2024-01-16T13:00:54;8.80;;;4.78;;
23684;SDS011;12020;51.384;6.908;2024-01-16T13:03:29;7.93;;;4.67;;
23684;SDS011;12020;51.384;6.908;2024-01-16T13:09:41;7.97;;;4.60;;
23684;SDS011;12020;51.384;6.908;2024-01-16T13:12:20;8.98;;;4.75;;
23684;SDS011;12020;51.384;6.908;2024-01-16T13:14:46;8.05;;;4.80;;
23684;SDS011;12020;51.384;6.908;2024-01-16T13:19:52;10.82;;;5.07;;
23684;SDS011;12020;51.384;6.908;2024-01-16T13:22:23;11.80;;;5.30;;
23684;SDS011;12020;51.384;6.908;2024-01-16T13:24:53;8.43;;;4.80;;
23684;SDS011;12020;51.384;6.908;2024-01-16T13:27:51;8.88;;;5.13;;
23684;SDS011;12020;51.384;6.908;2024-01-16T13:30:24;9.43;;;5.00;;
23684;SDS011;12020;51.384;6.908;2024-01-16T13:32:49;9.50;;;4.90;;
23684;SDS011;12020;51.384;6.908;2024-01-16T13:35:15;9.27;;;4.75;;
23684;SDS011;12020;51.384;6.908;2024-01-16T13:37:41;9.77;;;4.85;;
23684;SDS011;12020;51.384;6.908;2024-01-16T13:40:10;10.82;;;5.30;;
23684;SDS011;12020;51.384;6.908;2024-01-16T13:42:43;8.75;;;4.88;;
23684;SDS011;12020;51.384;6.908;2024-01-16T13:45:09;9.13;;;5.10;;
23684;SDS011;12020;51.384;6.908;2024-01-16T13:47:35;6.25;;;4.50;;
23684;SDS011;12020;51.384;6.908;2024-01-16T13:50:05;7.35;;;4.60;;
23684;SDS011;12020;51.384;6.908;2024-01-16T13:52:32;8.57;;;5.00;;
23684;SDS011;12020;51.384;6.908;2024-01-16T13:55:00;8.80;;;5.00;;
23684;SDS011;12020;51.384;6.908;2024-01-16T13:57:30;9.40;;;4.88;;
23684;SDS011;12020;51.384;6.908;2024-01-16T13:59:58;8.32;;;5.05;;
23684;SDS011;12020;51.384;6.908;2024-01-16T14:02:30;8.73;;;5.13;;
23684;SDS011;12020;51.384;6.908;2024-01-16T14:04:56;7.30;;;4.93;;
23684;SDS011;12020;51.384;6.908;2024-01-16T14:07:23;8.60;;;5.20;;
23684;SDS011;12020;51.384;6.908;2024-01-16T14:09:48;8.40;;;4.70;;
23684;SDS011;12020;51.384;6.908;2024-01-16T14:12:15;10.70;;;4.88;;
23684;SDS011;12020;51.384;6.908;2024-01-16T14:14:45;8.52;;;4.70;;
23684;SDS011;12020;51.384;6.908;2024-01-16T14:17:14;9.57;;;5.00;;
23684;SDS011;12020;51.384;6.908;2024-01-16T14:19:41;7.78;;;4.80;;
23684;SDS011;12020;51.384;6.908;2024-01-16T14:22:08;8.88;;;4.97;;
23684;SDS011;12020;51.384;6.908;2024-01-16T14:24:34;9.43;;;4.78;;
23684;SDS011;12020;51.384;6.908;2024-01-16T14:27:03;8.07;;;4.70;;
23684;SDS011;12020;51.384;6.908;2024-01-16T14:29:31;7.05;;;4.65;;
23684;SDS011;12020;51.384;6.908;2024-01-16T14:31:59;8.27;;;4.70;;
23684;SDS011;12020;51.384;6.908;2024-01-16T14:34:27;8.35;;;5.00;;
23684;SDS011;12020;51.384;6.908;2024-01-16T14:36:53;9.07;;;5.00;;
23684;SDS011;12020;51.384;6.908;2024-01-16T14:39:19;6.82;;;4.70;;
23684;SDS011;12020;51.384;6.908;2024-01-16T14:41:49;9.30;;;5.07;;
23684;SDS011;12020;51.384;6.908;2024-01-16T14:44:16;8.75;;;4.63;;
23684;SDS011;12020;51.384;6.908;2024-01-16T14:46:42;10.07;;;5.00;;
23684;SDS011;12020;51.384;6.908;2024-01-16T14:49:09;9.60;;;4.90;;
23684;SDS011;12020;51.384;6.908;2024-01-16T14:51:34;11.27;;;5.60;;
23684;SDS011;12020;51.384;6.908;2024-01-16T14:54:00;11.68;;;6.78;;
23684;SDS011;12020;51.384;6.908;2024-01-16T14:56:27;10.82;;;6.57;;
23684;SDS011;12020;51.384;6.908;2024-01-16T14:58:53;9.32;;;5.60;;
23684;SDS011;12020;51.384;6.908;2024-01-16T15:01:18;9.27;;;4.97;;
23684;SDS011;12020;51.384;6.908;2024-01-16T15:03:45;9.20;;;4.90;;
23684;SDS011;12020;51.384;6.908;2024-01-16T15:06:11;8.43;;;5.40;;
23684;SDS011;12020;51.384;6.908;2024-01-16T15:08:37;11.52;;;5.88;;
23684;SDS011;12020;51.384;6.908;2024-01-16T15:11:03;9.98;;;5.22;;
23684;SDS011;12020;51.384;6.908;2024-01-16T15:13:30;8.93;;;5.18;;
23684;SDS011;12020;51.384;6.908;2024-01-16T15:15:57;7.85;;;5.20;;
23684;SDS011;12020;51.384;6.908;2024-01-16T15:18:32;10.50;;;5.35;;
23684;SDS011;12020;51.384;6.908;2024-01-16T15:21:36;8.50;;;4.95;;
23684;SDS011;12020;51.384;6.908;2024-01-16T15:24:04;9.82;;;5.20;;
23684;SDS011;12020;51.384;6.908;2024-01-16T15:26:30;7.70;;;5.00;;
23684;SDS011;12020;51.384;6.908;2024-01-16T15:28:57;7.57;;;5.20;;
23684;SDS011;12020;51.384;6.908;2024-01-16T15:31:23;8.70;;;4.82;;
23684;SDS011;12020;51.384;6.908;2024-01-16T15:33:48;9.40;;;5.20;;
23684;SDS011;12020;51.384;6.908;2024-01-16T15:36:14;9.87;;;4.93;;
23684;SDS011;12020;51.384;6.908;2024-01-16T15:38:46;9.20;;;4.90;;
23684;SDS011;12020;51.384;6.908;2024-01-16T15:41:13;9.18;;;5.28;;
23684;SDS011;12020;51.384;6.908;2024-01-16T15:43:39;10.65;;;5.30;;
23684;SDS011;12020;51.384;6.908;2024-01-16T15:46:05;8.68;;;5.20;;
23684;SDS011;12020;51.384;6.908;2024-01-16T15:51:40;11.95;;;5.20;;
23684;SDS011;12020;51.384;6.908;2024-01-16T17:38:50;8.80;;;5.80;;
23684;SDS011;12020;51.384;6.908;2024-01-16T17:41:21;9.83;;;6.13;;
23684;SDS011;12020;51.384;6.908;2024-01-16T17:43:51;8.55;;;6.20;;
23684;SDS011;12020;51.384;6.908;2024-01-16T17:46:35;10.05;;;6.55;;
23684;SDS011;12020;51.384;6.908;2024-01-16T17:49:07;9.77;;;6.35;;
23684;SDS011;12020;51.384;6.908;2024-01-16T17:51:33;9.50;;;6.40;;
23684;SDS011;12020;51.384;6.908;2024-01-16T17:53:59;11.50;;;6.70;;
23684;SDS011;12020;51.384;6.908;2024-01-16T17:56:25;9.20;;;6.50;;
23684;SDS011;12020;51.384;6.908;2024-01-16T17:58:52;10.95;;;6.60;;
23684;SDS011;12020;51.384;6.908;2024-01-16T18:01:22;9.55;;;6.90;;
23684;SDS011;12020;51.384;6.908;2024-01-16T18:03:48;10.07;;;6.83;;
23684;SDS011;12020;51.384;6.908;2024-01-16T18:06:16;8.52;;;6.75;;
23684;SDS011;12020;51.384;6.908;2024-01-16T18:08:42;9.27;;;6.75;;
23684;SDS011;12020;51.384;6.908;2024-01-16T18:11:09;11.95;;;7.32;;
23684;SDS011;12020;51.384;6.908;2024-01-16T18:13:37;10.52;;;6.90;;
23684;SDS011;12020;51.384;6.908;2024-01-16T18:16:04;11.98;;;7.35;;
23684;SDS011;12020;51.384;6.908;2024-01-16T18:22:21;10.73;;;7.32;;
23684;SDS011;12020;51.384;6.908;2024-01-16T18:24:49;10.20;;;7.13;;
23684;SDS011;12020;51.384;6.908;2024-01-16T18:33:56;9.88;;;7.35;;
23684;SDS011;12020;51.384;6.908;2024-01-16T18:36:25;9.63;;;7.20;;
23684;SDS011;12020;51.384;6.908;2024-01-16T18:39:04;9.32;;;7.18;;
23684;SDS011;12020;51.384;6.908;2024-01-16T18:42:22;13.35;;;7.50;;
23684;SDS011;12020;51.384;6.908;2024-01-16T18:44:57;12.93;;;7.82;;
23684;SDS011;12020;51.384;6.908;2024-01-16T18:47:23;10.95;;;7.32;;
23684;SDS011;12020;51.384;6.908;2024-01-16T18:49:51;12.98;;;7.53;;
23684;SDS011;12020;51.384;6.908;2024-01-16T18:52:18;11.00;;;7.80;;
23684;SDS011;12020;51.384;6.908;2024-01-16T18:54:46;11.18;;;7.70;;
23684;SDS011;12020;51.384;6.908;2024-01-16T18:57:27;12.35;;;7.93;;
23684;SDS011;12020;51.384;6.908;2024-01-16T19:00:24;10.88;;;7.32;;
23684;SDS011;12020;51.384;6.908;2024-01-16T19:02:52;12.10;;;8.20;;
23684;SDS011;12020;51.384;6.908;2024-01-16T19:05:45;9.98;;;7.75;;
23684;SDS011;12020;51.384;6.908;2024-01-16T22:07:50;13.35;;;8.52;;
23684;SDS011;12020;51.384;6.908;2024-01-16T22:15:27;12.80;;;7.90;;
23684;SDS011;12020;51.384;6.908;2024-01-16T22:20:53;11.57;;;8.48;;
23684;SDS011;12020;51.384;6.908;2024-01-16T22:23:18;10.88;;;8.35;;
23684;SDS011;12020;51.384;6.908;2024-01-16T22:25:45;13.38;;;8.45;;
